ADDS METAR Data INFO
IDs: Format: Raw Decoded Include TAF

Data at: 0025 UTC 11 Dec 2017

KFUL 102353Z 11004KT 10SM CLR 28/M11 A3007 RMK AO2 SLP180 T02781111 10306 20222 55006
KFUL 102253Z 10006KT 10SM BKN200 29/M13 A3006 RMK AO2 SLP178 T02891133
KFUL 102153Z 10007KT 10SM CLR 30/M13 A3006 RMK AO2 SLP179 T03001133
KFUL 102053Z 09011KT 10SM BKN200 30/M14 A3008 RMK AO2 SLP186 T03001139 58027
KFUL 101953Z 30005KT 10SM BKN200 26/M04 A3012 RMK AO2 SLP197 T02611039
KFUL 101853Z 00000KT 10SM BKN200 24/M05 A3014 RMK AO2 SLP206 T02441050
KFUL 101753Z 00000KT 10SM BKN200 22/M01 A3016 RMK AO2 SLP213 T02171006 10217 20094 50001
KFUL 101653Z 00000KT 10SM CLR 16/00 A3017 RMK AO2 SLP217 T01560000
KFUL 101553Z 00000KT 10SM CLR 11/M02 A3017 RMK AO2 SLP215 T01111017
KFUL 101453Z 00000KT 10SM CLR 10/M03 A3016 RMK AO2 SLP212 T01001028 51008
KFUL 101353Z AUTO 00000KT 10SM CLR 09/M02 A3016 RMK AO2 SLP211 T00941022
KFUL 101253Z AUTO 00000KT 10SM CLR 10/M03 A3014 RMK AO2 SLP206 T01001028
KFUL 101153Z AUTO 00000KT 10SM CLR 11/M03 A3014 RMK AO2 SLP204 T01061033 10206 20106 58005
KFUL 101053Z AUTO 00000KT 10SM CLR 12/M03 A3015 RMK AO2 SLP207 T01171028
KFUL 100953Z AUTO 00000KT 10SM CLR 12/M03 A3015 RMK AO2 SLP208 T01221028
KFUL 100853Z AUTO 00000KT 10SM CLR 13/M03 A3015 RMK AO2 SLP209 T01331033 58002
KFUL 100753Z AUTO 29003KT 10SM CLR 14/M05 A3015 RMK AO2 SLP209 T01441050 403060083
KFUL 100653Z AUTO 33003KT 10SM CLR 19/M09 A3016 RMK AO2 SLP213 T01891094
KFUL 100553Z AUTO 01003KT 10SM CLR 21/M12 A3016 RMK AO2 SLP211 T02061117 10278 20206 51007
KFUL 100453Z 36003KT 10SM CLR 21/M12 A3016 RMK AO2 SLP210 T02061117
KFUL 100353Z 07008KT 10SM BKN200 22/M13 A3015 RMK AO2 SLP207 T02221128
KFUL 100253Z 06006KT 10SM BKN200 23/M13 A3014 RMK AO2 SLP204 T02331128 53012
KFUL 100153Z 09009KT 10SM BKN200 24/M12 A3012 RMK AO2 SLP199 T02391122
KFUL 100053Z 09006KT 10SM CLR 25/M11 A3011 RMK AO2 SLP196 T02501111
KFUL 092353Z 09007KT 10SM BKN200 28/M13 A3010 RMK AO2 SLP193 T02781128 10306 20267 56006
KFUL 092253Z 08013KT 10SM CLR 29/M13 A3010 RMK AO2 SLP193 T02941133
KFUL 092153Z 07010G17KT 10SM CLR 31/M13 A3010 RMK AO2 SLP192 T03061133
KFUL 092053Z 10010KT 10SM CLR 29/M13 A3012 RMK AO2 SLP199 T02941133 58029
KFUL 091953Z 06010KT 10SM CLR 29/M14 A3016 RMK AO2 SLP210 T02891139
KFUL 091853Z 08013G18KT 10SM CLR 28/M13 A3019 RMK AO2 SLP223 T02831128
KFUL 091753Z 07010KT 10SM CLR 27/M11 A3021 RMK AO2 SLP229 T02671111 10267 20083 50004
KFUL 091653Z 00000KT 10SM CLR 23/M09 A3021 RMK AO2 SLP230 T02331094
KFUL 091553Z 06008KT 10SM CLR 21/M11 A3021 RMK AO2 SLP227 T02111106
KFUL 091453Z 00000KT 10SM CLR 09/M01 A3020 RMK AO2 SLP226 T00891006 53003
KFUL 091353Z AUTO 00000KT 10SM CLR 08/M01 A3019 RMK AO2 SLP224 T00831011
KFUL 091253Z AUTO 00000KT 10SM CLR 09/M01 A3019 RMK AO2 SLP221 T00891011